createdAt,value
2023-03-01T00:01:51.500Z,5.97
2023-03-01T00:04:19.621Z,5.47
2023-03-01T00:06:48.375Z,5.44
2023-03-01T00:09:17.048Z,5.32
2023-03-01T00:11:46.477Z,5.48
2023-03-01T00:14:14.828Z,5.48
2023-03-01T00:16:44.785Z,5.31
2023-03-01T00:19:16.820Z,5.26
2023-03-01T00:21:45.396Z,5.33
2023-03-01T00:24:13.762Z,5.23
2023-03-01T00:26:41.874Z,5.20
2023-03-01T00:29:10.046Z,5.25
2023-03-01T00:31:38.073Z,5.19
2023-03-01T00:34:07.536Z,5.18
2023-03-01T00:36:38.786Z,5.54
2023-03-01T00:39:10.203Z,5.81
2023-03-01T00:41:38.049Z,5.54
2023-03-01T00:44:06.281Z,5.57
2023-03-01T00:46:35.381Z,5.18
2023-03-01T00:49:05.611Z,5.12
2023-03-01T00:51:34.353Z,5.10
2023-03-01T00:54:04.996Z,5.19
2023-03-01T00:56:33.458Z,5.03
2023-03-01T00:59:01.848Z,5.03
2023-03-01T01:01:32.336Z,5.16
2023-03-01T01:04:02.903Z,5.51
2023-03-01T01:06:33.005Z,5.33
2023-03-01T01:09:03.861Z,5.15
2023-03-01T01:11:32.743Z,4.93
2023-03-01T01:14:01.343Z,5.10
2023-03-01T01:16:32.066Z,4.93
2023-03-01T01:19:00.244Z,5.00
2023-03-01T01:21:32.935Z,4.98
2023-03-01T01:24:01.106Z,4.92
2023-03-01T01:26:33.463Z,4.98
2023-03-01T01:29:02.722Z,5.03
2023-03-01T01:31:31.214Z,5.24
2023-03-01T01:34:00.589Z,5.49
2023-03-01T01:36:29.340Z,5.42
2023-03-01T01:38:58.012Z,5.60
2023-03-01T01:41:26.853Z,5.56
2023-03-01T01:44:15.767Z,5.24
2023-03-01T01:46:50.378Z,5.07
2023-03-01T01:49:27.152Z,5.03
2023-03-01T01:52:02.838Z,4.86
2023-03-01T01:54:38.347Z,5.04
2023-03-01T01:57:14.126Z,5.00
2023-03-01T01:59:45.652Z,4.81
2023-03-01T02:02:14.881Z,4.73
2023-03-01T02:04:43.397Z,4.64
2023-03-01T02:07:17.093Z,4.54
2023-03-01T02:09:48.721Z,4.79
2023-03-01T02:12:19.531Z,4.65
2023-03-01T02:14:48.745Z,4.58
2023-03-01T02:17:19.093Z,4.59
2023-03-01T02:20:00.083Z,4.48
2023-03-01T02:22:31.747Z,4.50
2023-03-01T02:25:13.709Z,4.47
2023-03-01T02:27:52.553Z,4.44
2023-03-01T02:30:24.259Z,4.61
2023-03-01T02:32:55.141Z,4.50
2023-03-01T02:35:25.191Z,4.39
2023-03-01T02:37:53.530Z,4.47
2023-03-01T02:40:22.641Z,4.40
2023-03-01T02:42:56.518Z,4.45
2023-03-01T02:45:26.624Z,4.39
2023-03-01T02:47:56.910Z,4.52
2023-03-01T02:50:48.614Z,5.06
2023-03-01T02:53:23.551Z,4.93
2023-03-01T02:55:52.139Z,4.70
2023-03-01T02:58:20.478Z,4.47
2023-03-01T03:00:50.388Z,4.66
2023-03-01T03:03:21.228Z,4.42
2023-03-01T03:05:49.781Z,4.92
2023-03-01T03:08:24.873Z,4.93
2023-03-01T03:10:54.059Z,5.22
2023-03-01T03:13:29.361Z,4.86
2023-03-01T03:15:59.304Z,5.21
2023-03-01T03:18:27.741Z,5.24
2023-03-01T03:20:56.474Z,4.65
2023-03-01T03:23:24.923Z,5.07
2023-03-01T03:25:53.072Z,5.14
2023-03-01T03:28:21.259Z,5.11
2023-03-01T03:30:49.402Z,4.95
2023-03-01T03:33:19.072Z,5.17
2023-03-01T03:35:48.977Z,4.83
2023-03-01T03:38:22.000Z,5.12
2023-03-01T03:40:53.591Z,5.07
2023-03-01T03:43:23.962Z,5.14
2023-03-01T03:45:53.048Z,4.95
2023-03-01T03:48:23.088Z,5.14
2023-03-01T03:50:52.776Z,4.89
2023-03-01T03:53:21.279Z,4.70
2023-03-01T03:55:50.537Z,4.66
2023-03-01T03:58:20.741Z,4.47
2023-03-01T04:00:50.696Z,4.03
2023-03-01T04:03:21.026Z,3.92
2023-03-01T04:05:51.723Z,3.95
2023-03-01T04:08:21.712Z,3.97
2023-03-01T04:10:51.890Z,4.33
2023-03-01T04:13:21.897Z,4.06
2023-03-01T04:15:51.624Z,3.92
2023-03-01T04:18:21.885Z,3.98
2023-03-01T04:20:56.259Z,3.92
2023-03-01T04:23:24.350Z,4.00
2023-03-01T04:25:56.193Z,3.99
2023-03-01T04:28:26.471Z,3.96
2023-03-01T04:30:54.878Z,3.98
2023-03-01T04:33:23.587Z,3.92
2023-03-01T04:35:54.319Z,3.89
2023-03-01T04:38:23.175Z,3.88
2023-03-01T04:40:51.354Z,3.83
2023-03-01T04:43:19.784Z,3.71
2023-03-01T04:45:48.080Z,3.78
2023-03-01T04:48:16.239Z,3.59
2023-03-01T04:50:44.454Z,3.63
2023-03-01T04:53:15.059Z,3.66
2023-03-01T04:55:43.423Z,3.57
2023-03-01T04:58:11.313Z,3.51
2023-03-01T05:00:41.813Z,3.76
2023-03-01T05:03:11.335Z,3.57
2023-03-01T05:05:40.782Z,3.47
2023-03-01T05:08:18.249Z,3.33
2023-03-01T05:10:50.187Z,3.44
2023-03-01T05:13:22.021Z,3.30
2023-03-01T05:15:50.880Z,3.43
2023-03-01T05:18:21.825Z,3.37
2023-03-01T05:20:50.106Z,3.30
2023-03-01T05:23:18.249Z,3.35
2023-03-01T05:25:47.813Z,3.29
2023-03-01T05:28:16.088Z,3.31
2023-03-01T05:30:52.909Z,3.39
2023-03-01T05:33:22.973Z,3.38
2023-03-01T05:35:52.663Z,3.35
2023-03-01T05:38:21.355Z,3.35
2023-03-01T05:40:51.313Z,3.46
2023-03-01T05:43:19.408Z,3.31
2023-03-01T05:45:47.685Z,3.16
2023-03-01T05:48:15.942Z,3.20
2023-03-01T05:50:46.684Z,3.17
2023-03-01T05:53:17.099Z,3.02
2023-03-01T05:55:47.364Z,3.16
2023-03-01T05:58:19.009Z,3.05
2023-03-01T06:00:48.705Z,3.16
2023-03-01T06:03:19.361Z,3.10
2023-03-01T06:05:47.602Z,3.17
2023-03-01T06:08:39.090Z,3.26
2023-03-01T06:11:08.176Z,3.34
2023-03-01T06:13:37.679Z,3.48
2023-03-01T06:16:07.433Z,3.77
2023-03-01T06:18:35.569Z,3.73
2023-03-01T06:21:03.591Z,3.81
2023-03-01T06:23:31.672Z,3.68
2023-03-01T06:25:59.833Z,3.71
2023-03-01T06:28:28.124Z,3.46
2023-03-01T06:30:57.671Z,3.51
2023-03-01T06:33:25.627Z,3.38
2023-03-01T06:35:54.045Z,3.49
2023-03-01T06:38:22.081Z,3.32
2023-03-01T06:40:54.078Z,3.39
2023-03-01T06:43:22.455Z,3.35
2023-03-01T06:45:50.401Z,3.34
2023-03-01T06:48:19.663Z,3.21
2023-03-01T06:50:47.666Z,3.31
2023-03-01T06:53:15.674Z,3.57
2023-03-01T06:55:43.744Z,3.64
2023-03-01T06:58:12.737Z,3.55
2023-03-01T07:00:41.942Z,3.50
2023-03-01T07:03:10.789Z,3.63
2023-03-01T07:05:40.517Z,3.78
2023-03-01T07:08:08.601Z,3.64
2023-03-01T07:10:37.017Z,3.94
2023-03-01T07:13:05.104Z,3.79
2023-03-01T07:15:33.869Z,3.86
2023-03-01T07:18:01.821Z,3.88
2023-03-01T07:20:30.135Z,4.00
2023-03-01T07:23:09.951Z,3.96
2023-03-01T07:25:37.959Z,4.01
2023-03-01T07:28:06.400Z,4.21
2023-03-01T07:30:34.274Z,4.45
2023-03-01T07:33:02.268Z,4.76
2023-03-01T07:35:30.467Z,4.20
2023-03-01T07:37:59.656Z,4.47
2023-03-01T07:40:27.814Z,4.59
2023-03-01T07:42:59.062Z,4.71
2023-03-01T07:45:27.833Z,4.72
2023-03-01T07:47:56.552Z,4.97
2023-03-01T07:50:25.109Z,4.55
2023-03-01T07:52:52.978Z,4.53
2023-03-01T07:55:22.186Z,4.73
2023-03-01T07:57:50.438Z,5.04
2023-03-01T08:00:19.243Z,4.99
2023-03-01T08:02:54.772Z,4.56
2023-03-01T08:05:23.971Z,4.87
2023-03-01T08:07:51.854Z,4.95
2023-03-01T08:10:20.690Z,5.34
2023-03-01T08:12:49.929Z,5.26
2023-03-01T08:15:19.752Z,5.18
2023-03-01T08:17:47.811Z,5.09
2023-03-01T08:20:16.433Z,5.26
2023-03-01T08:22:45.275Z,5.89
2023-03-01T08:25:13.351Z,5.41
2023-03-01T08:27:42.495Z,5.56
2023-03-01T08:30:15.689Z,5.78
2023-03-01T08:32:43.675Z,5.75
2023-03-01T08:35:11.582Z,5.79
2023-03-01T08:37:39.483Z,6.49
2023-03-01T08:40:10.937Z,6.19
2023-03-01T08:42:39.144Z,5.35
2023-03-01T08:45:08.000Z,5.51
2023-03-01T08:47:37.385Z,6.06
2023-03-01T08:50:06.389Z,5.97
2023-03-01T08:52:35.029Z,5.80
2023-03-01T08:55:03.522Z,5.88
2023-03-01T08:57:31.969Z,5.65
2023-03-01T09:00:00.000Z,6.13
2023-03-01T09:02:28.027Z,6.46
2023-03-01T09:04:57.518Z,6.01
2023-03-01T09:07:29.080Z,6.44
2023-03-01T09:09:57.090Z,6.46
2023-03-01T09:12:25.904Z,6.35
2023-03-01T09:14:53.842Z,6.28
2023-03-01T09:17:22.566Z,6.87
2023-03-01T09:19:50.757Z,7.76
2023-03-01T09:22:20.082Z,7.52
2023-03-01T09:24:48.472Z,7.65
2023-03-01T09:27:19.603Z,7.88
2023-03-01T09:29:47.708Z,8.36
2023-03-01T09:32:15.787Z,8.14
2023-03-01T09:35:01.340Z,7.58
2023-03-01T09:37:30.688Z,8.14
2023-03-01T09:39:58.788Z,8.34
2023-03-01T09:42:27.595Z,7.16
2023-03-01T09:44:59.966Z,7.19
2023-03-01T09:47:30.333Z,7.44
2023-03-01T09:50:07.272Z,7.92
2023-03-01T09:52:42.639Z,8.22
2023-03-01T09:55:18.416Z,8.57
2023-03-01T09:57:54.998Z,8.92
2023-03-01T10:00:39.097Z,8.07
2023-03-01T10:03:17.920Z,8.65
2023-03-01T10:06:03.894Z,9.01
2023-03-01T10:08:44.416Z,9.16
2023-03-01T10:11:25.132Z,9.43
2023-03-01T10:14:00.753Z,9.68
2023-03-01T10:16:43.496Z,9.01
2023-03-01T10:19:25.293Z,9.06
2023-03-01T10:21:53.788Z,8.65
2023-03-01T10:24:23.396Z,8.57
2023-03-01T10:26:57.500Z,8.12
2023-03-01T10:29:31.903Z,8.41
2023-03-01T10:32:00.070Z,8.67
2023-03-01T10:34:31.946Z,8.85
2023-03-01T10:37:10.904Z,8.36
2023-03-01T10:39:58.058Z,8.73
2023-03-01T10:42:31.087Z,9.13
2023-03-01T10:45:00.023Z,9.31
2023-03-01T10:47:30.370Z,9.93
2023-03-01T10:50:02.587Z,9.13
2023-03-01T10:52:34.069Z,8.77
2023-03-01T10:55:11.180Z,8.23
2023-03-01T10:57:43.068Z,8.26
2023-03-01T11:00:24.447Z,9.05
2023-03-01T11:03:05.075Z,9.40
2023-03-01T11:05:34.579Z,8.96
2023-03-01T11:08:05.167Z,10.07
2023-03-01T11:10:36.292Z,9.61
2023-03-01T11:13:16.348Z,10.01
2023-03-01T11:15:45.869Z,10.76
2023-03-01T11:18:25.101Z,10.28
2023-03-01T11:21:01.754Z,10.30
2023-03-01T11:23:32.495Z,9.90
2023-03-01T11:26:06.688Z,9.25
2023-03-01T11:28:37.725Z,9.42
2023-03-01T11:31:09.797Z,10.51
2023-03-01T11:33:43.629Z,10.94
2023-03-01T11:36:28.325Z,10.35
2023-03-01T11:38:57.554Z,9.34
2023-03-01T11:41:31.193Z,9.90
2023-03-01T11:44:02.941Z,9.71
2023-03-01T11:46:57.372Z,9.77
2023-03-01T11:49:57.041Z,10.79
2023-03-01T11:52:36.170Z,10.76
2023-03-01T11:55:21.470Z,10.10
2023-03-01T11:58:05.819Z,10.40
2023-03-01T12:00:49.847Z,10.88
2023-03-01T12:03:31.718Z,10.20
2023-03-01T12:06:29.718Z,9.80
2023-03-01T12:09:17.419Z,9.96
2023-03-01T12:12:01.271Z,10.93
2023-03-01T12:14:52.627Z,11.18
2023-03-01T12:17:47.045Z,11.41
2023-03-01T12:20:25.348Z,10.06
2023-03-01T12:23:24.680Z,10.42
2023-03-01T12:26:00.689Z,11.01
2023-03-01T12:28:53.047Z,10.76
2023-03-01T12:32:15.117Z,11.88
2023-03-01T12:35:02.235Z,10.39
2023-03-01T12:37:44.654Z,11.19
2023-03-01T12:40:26.244Z,10.09
2023-03-01T12:43:03.776Z,10.15
2023-03-01T12:45:46.465Z,9.89
2023-03-01T12:48:26.193Z,10.82
2023-03-01T12:50:59.599Z,10.81
2023-03-01T12:53:31.017Z,11.06
2023-03-01T12:56:03.429Z,10.69
2023-03-01T12:58:49.316Z,11.38
2023-03-01T13:01:30.027Z,10.73
2023-03-01T13:04:12.388Z,11.45
2023-03-01T13:06:49.206Z,11.14
2023-03-01T13:09:26.032Z,10.90
2023-03-01T13:11:54.196Z,11.08
2023-03-01T13:14:39.715Z,10.45
2023-03-01T13:17:43.449Z,10.42
2023-03-01T13:20:17.058Z,10.46
2023-03-01T13:22:54.628Z,10.15
2023-03-01T13:25:27.617Z,10.35
2023-03-01T13:28:33.072Z,11.42
2023-03-01T13:31:01.555Z,11.64
2023-03-01T13:33:44.576Z,11.31
2023-03-01T13:36:43.738Z,12.07
2023-03-01T13:39:32.856Z,11.22
2023-03-01T13:42:02.164Z,11.57
2023-03-01T13:44:34.742Z,10.71
2023-03-01T13:47:15.406Z,11.38
2023-03-01T13:49:48.785Z,11.87
2023-03-01T13:52:40.836Z,10.77
2023-03-01T13:55:21.595Z,11.43
2023-03-01T13:57:54.808Z,11.88
2023-03-01T14:00:34.011Z,12.87
2023-03-01T14:03:06.390Z,11.72
2023-03-01T14:05:37.251Z,11.63
2023-03-01T14:08:05.581Z,11.89
2023-03-01T14:10:43.463Z,11.46
2023-03-01T14:13:30.370Z,10.74
2023-03-01T14:16:14.762Z,11.73
2023-03-01T14:18:54.656Z,12.00
2023-03-01T14:21:26.536Z,11.99
2023-03-01T14:23:55.156Z,11.25
2023-03-01T14:26:24.422Z,11.85
2023-03-01T14:28:53.344Z,11.98
2023-03-01T14:31:52.149Z,12.51
2023-03-01T14:34:23.655Z,11.94
2023-03-01T14:36:53.025Z,11.84
2023-03-01T14:39:26.711Z,11.69
2023-03-01T14:41:56.236Z,10.96
2023-03-01T14:44:25.889Z,11.37
2023-03-01T14:46:57.054Z,11.31
2023-03-01T14:49:28.150Z,11.76
2023-03-01T14:52:01.817Z,12.04
2023-03-01T14:54:37.449Z,11.94
2023-03-01T14:57:05.588Z,12.22
2023-03-01T14:59:36.402Z,12.75
2023-03-01T15:02:04.865Z,11.71
2023-03-01T15:04:36.304Z,11.60
2023-03-01T15:07:06.852Z,11.98
2023-03-01T15:09:38.633Z,11.64
2023-03-01T15:12:36.272Z,11.63
2023-03-01T15:15:23.589Z,12.37
2023-03-01T15:17:57.268Z,12.33
2023-03-01T15:20:28.537Z,11.68
2023-03-01T15:22:59.064Z,11.60
2023-03-01T15:25:29.553Z,11.99
2023-03-01T15:27:59.710Z,12.11
2023-03-01T15:30:36.001Z,12.28
2023-03-01T15:33:22.790Z,12.21
2023-03-01T15:35:54.800Z,11.88
2023-03-01T15:38:55.336Z,12.21
2023-03-01T15:41:28.663Z,11.09
2023-03-01T15:43:57.450Z,11.81
2023-03-01T15:46:33.487Z,11.63
2023-03-01T15:49:04.875Z,12.00
2023-03-01T15:51:35.940Z,11.75
2023-03-01T15:54:08.972Z,11.28
2023-03-01T15:56:36.988Z,11.43
2023-03-01T15:59:07.598Z,11.18
2023-03-01T16:01:36.528Z,11.48
2023-03-01T16:04:05.706Z,11.55
2023-03-01T16:06:34.485Z,11.85
2023-03-01T16:09:03.759Z,13.22
2023-03-01T16:11:33.608Z,12.77
2023-03-01T16:14:01.741Z,13.28
2023-03-01T16:16:30.013Z,13.08
2023-03-01T16:18:58.775Z,12.95
2023-03-01T16:21:27.153Z,13.86
2023-03-01T16:23:55.392Z,13.78
2023-03-01T16:26:23.257Z,12.67
2023-03-01T16:28:58.920Z,13.05
2023-03-01T16:31:30.072Z,13.42
2023-03-01T16:34:00.738Z,12.25
2023-03-01T16:36:31.218Z,11.96
2023-03-01T16:39:01.624Z,12.10
2023-03-01T16:41:30.598Z,11.65
2023-03-01T16:44:00.116Z,11.71
2023-03-01T16:46:29.890Z,11.52
2023-03-01T16:48:58.554Z,10.75
2023-03-01T16:51:26.712Z,10.63
2023-03-01T16:53:55.217Z,10.63
2023-03-01T16:56:23.167Z,10.22
2023-03-01T16:58:51.110Z,10.56
2023-03-01T17:01:24.384Z,10.61
2023-03-01T17:03:52.621Z,10.28
2023-03-01T17:06:23.145Z,10.36
2023-03-01T17:08:51.060Z,10.03
2023-03-01T17:11:21.326Z,10.63
2023-03-01T17:13:49.606Z,10.47
2023-03-01T17:16:21.377Z,10.70
2023-03-01T17:18:50.316Z,10.52
2023-03-01T17:21:18.618Z,10.15
2023-03-01T17:23:48.040Z,10.09
2023-03-01T17:26:15.906Z,10.50
2023-03-01T17:28:44.425Z,9.78
2023-03-01T17:31:13.163Z,9.91
2023-03-01T17:33:42.465Z,9.94
2023-03-01T17:36:10.326Z,9.80
2023-03-01T17:38:38.171Z,9.94
2023-03-01T17:41:06.504Z,10.12
2023-03-01T17:43:35.460Z,10.35
2023-03-01T17:46:03.520Z,10.38
2023-03-01T17:48:31.582Z,10.08
2023-03-01T17:51:01.029Z,10.16
2023-03-01T17:53:28.981Z,9.87
2023-03-01T17:56:02.491Z,9.43
2023-03-01T17:58:31.130Z,9.59
2023-03-01T18:01:08.702Z,9.39
2023-03-01T18:03:36.783Z,9.47
2023-03-01T18:06:12.019Z,9.89
2023-03-01T18:08:39.926Z,9.96
2023-03-01T18:11:08.927Z,9.74
2023-03-01T18:13:37.538Z,9.73
2023-03-01T18:16:09.461Z,9.73
2023-03-01T18:18:38.522Z,9.47
2023-03-01T18:21:09.655Z,9.62
2023-03-01T18:23:39.118Z,9.11
2023-03-01T18:26:09.016Z,9.30
2023-03-01T18:28:37.611Z,9.31
2023-03-01T18:31:08.836Z,9.08
2023-03-01T18:33:37.595Z,9.03
2023-03-01T18:36:17.304Z,9.16
2023-03-01T18:38:45.580Z,8.97
2023-03-01T18:41:13.669Z,9.14
2023-03-01T18:43:41.842Z,9.08
2023-03-01T18:46:10.084Z,8.94
2023-03-01T18:48:40.442Z,8.82
2023-03-01T18:51:14.295Z,8.80
2023-03-01T18:53:42.478Z,8.83
2023-03-01T18:56:11.237Z,8.60
2023-03-01T18:58:39.531Z,8.41
2023-03-01T19:01:13.398Z,8.45
2023-03-01T19:03:41.523Z,8.31
2023-03-01T19:06:11.256Z,8.40
2023-03-01T19:08:40.789Z,8.12
2023-03-01T19:11:09.733Z,8.38
2023-03-01T19:13:40.490Z,8.59
2023-03-01T19:16:11.660Z,8.36
2023-03-01T19:18:42.634Z,8.22
2023-03-01T19:21:16.520Z,8.54
2023-03-01T19:23:44.832Z,8.21
2023-03-01T19:26:17.470Z,8.26
2023-03-01T19:28:46.734Z,8.31
2023-03-01T19:31:19.237Z,8.21
2023-03-01T19:33:51.366Z,8.49
2023-03-01T19:36:22.514Z,8.09
2023-03-01T19:38:50.415Z,8.15
2023-03-01T19:41:21.661Z,8.31
2023-03-01T19:43:49.582Z,8.57
2023-03-01T19:46:17.517Z,8.57
2023-03-01T19:48:45.592Z,8.27
2023-03-01T19:51:13.674Z,7.75
2023-03-01T19:53:42.938Z,8.21
2023-03-01T19:56:11.183Z,8.27
2023-03-01T19:58:40.106Z,7.97
2023-03-01T20:01:16.761Z,8.04
2023-03-01T20:03:45.877Z,7.43
2023-03-01T20:06:17.073Z,7.52
2023-03-01T20:08:46.322Z,7.59
2023-03-01T20:11:16.388Z,7.57
2023-03-01T20:13:44.916Z,7.71
2023-03-01T20:16:16.600Z,8.03
2023-03-01T20:18:44.910Z,7.78
2023-03-01T20:21:23.645Z,7.58
2023-03-01T20:23:53.793Z,7.77
2023-03-01T20:26:23.137Z,7.62
2023-03-01T20:28:52.828Z,7.86
2023-03-01T20:31:22.508Z,8.02
2023-03-01T20:33:50.617Z,7.81
2023-03-01T20:36:19.448Z,8.21
2023-03-01T20:38:47.357Z,8.24
2023-03-01T20:41:16.568Z,8.09
2023-03-01T20:43:44.634Z,8.19
2023-03-01T20:46:14.876Z,8.15
2023-03-01T20:48:43.449Z,7.40
2023-03-01T20:51:12.814Z,7.30
2023-03-01T20:53:41.200Z,7.46
2023-03-01T20:56:11.165Z,7.41
2023-03-01T20:58:41.143Z,7.28
2023-03-01T21:01:10.421Z,7.55
2023-03-01T21:03:38.371Z,7.56
2023-03-01T21:06:07.193Z,7.71
2023-03-01T21:08:35.474Z,7.71
2023-03-01T21:11:06.267Z,7.67
2023-03-01T21:13:35.246Z,7.52
2023-03-01T21:16:07.827Z,7.58
2023-03-01T21:18:36.995Z,7.87
2023-03-01T21:21:06.817Z,7.90
2023-03-01T21:23:36.396Z,8.04
2023-03-01T21:26:05.847Z,7.74
2023-03-01T21:28:34.600Z,7.30
2023-03-01T21:31:08.839Z,7.26
2023-03-01T21:33:37.366Z,7.10
2023-03-01T21:36:08.278Z,6.90
2023-03-01T21:38:38.584Z,7.16
2023-03-01T21:41:08.529Z,7.23
2023-03-01T21:43:37.315Z,7.09
2023-03-01T21:46:08.986Z,7.22
2023-03-01T21:48:38.249Z,7.13
2023-03-01T21:51:07.616Z,7.29
2023-03-01T21:53:38.051Z,7.21
2023-03-01T21:56:07.176Z,7.05
2023-03-01T21:58:35.133Z,6.85
2023-03-01T22:01:10.258Z,6.82
2023-03-01T22:03:45.078Z,6.76
2023-03-01T22:06:19.213Z,6.39
2023-03-01T22:08:48.765Z,6.51
2023-03-01T22:11:18.982Z,6.68
2023-03-01T22:13:49.281Z,6.60
2023-03-01T22:16:19.357Z,6.45
2023-03-01T22:18:48.252Z,6.89
2023-03-01T22:21:16.543Z,6.92
2023-03-01T22:23:45.173Z,7.03
2023-03-01T22:26:23.475Z,7.10
2023-03-01T22:28:51.575Z,6.72
2023-03-01T22:31:21.029Z,6.86
2023-03-01T22:33:49.126Z,6.75
2023-03-01T22:36:17.096Z,6.79
2023-03-01T22:38:45.283Z,6.84
2023-03-01T22:41:13.455Z,7.25
2023-03-01T22:43:41.434Z,7.11
2023-03-01T22:46:14.089Z,7.18
2023-03-01T22:48:43.528Z,7.24
2023-03-01T22:51:15.643Z,7.41
2023-03-01T22:53:44.153Z,7.25
2023-03-01T22:56:14.592Z,7.14
2023-03-01T22:58:43.124Z,7.13
2023-03-01T23:01:16.376Z,6.61
2023-03-01T23:03:46.187Z,6.02
2023-03-01T23:06:15.222Z,6.11
2023-03-01T23:08:43.867Z,5.84
2023-03-01T23:11:13.823Z,5.90
2023-03-01T23:13:42.201Z,6.06
2023-03-01T23:16:11.622Z,6.33
2023-03-01T23:18:40.030Z,6.28
2023-03-01T23:21:14.276Z,5.95
2023-03-01T23:23:43.418Z,6.24
2023-03-01T23:26:11.672Z,6.07
2023-03-01T23:28:40.979Z,6.29
2023-03-01T23:31:11.690Z,6.00
2023-03-01T23:33:39.528Z,5.57
2023-03-01T23:36:07.918Z,5.25
2023-03-01T23:38:37.104Z,5.32
2023-03-01T23:41:05.213Z,5.36
2023-03-01T23:43:33.720Z,5.67
2023-03-01T23:46:01.485Z,5.56
2023-03-01T23:48:29.323Z,5.34
2023-03-01T23:50:57.224Z,5.22
2023-03-01T23:53:25.163Z,5.51
2023-03-01T23:55:55.313Z,5.37
2023-03-01T23:58:28.592Z,5.52
